sensor_id;sensor_type;location;lat;lon;timestamp;P1;durP1;ratioP1;P2;durP2;ratioP2
3257;SDS011;1641;51.306;12.384;2024-01-15T00:02:15;19.88;;;9.73;;
3257;SDS011;1641;51.306;12.384;2024-01-15T00:04:41;13.07;;;8.65;;
3257;SDS011;1641;51.306;12.384;2024-01-15T00:07:07;15.95;;;9.18;;
3257;SDS011;1641;51.306;12.384;2024-01-15T00:09:33;12.75;;;8.13;;
3257;SDS011;1641;51.306;12.384;2024-01-15T00:12:05;15.95;;;9.30;;
3257;SDS011;1641;51.306;12.384;2024-01-15T00:14:31;14.15;;;10.07;;
3257;SDS011;1641;51.306;12.384;2024-01-15T00:16:56;12.23;;;8.05;;
3257;SDS011;1641;51.306;12.384;2024-01-15T00:19:22;11.88;;;7.47;;
3257;SDS011;1641;51.306;12.384;2024-01-15T00:21:54;12.70;;;7.70;;
3257;SDS011;1641;51.306;12.384;2024-01-15T00:26:45;14.13;;;8.93;;
3257;SDS011;1641;51.306;12.384;2024-01-15T00:29:10;16.38;;;9.77;;
3257;SDS011;1641;51.306;12.384;2024-01-15T00:31:35;15.50;;;8.52;;
3257;SDS011;1641;51.306;12.384;2024-01-15T00:34:01;18.33;;;10.23;;
3257;SDS011;1641;51.306;12.384;2024-01-15T00:36:26;12.88;;;8.43;;
3257;SDS011;1641;51.306;12.384;2024-01-15T00:38:52;14.20;;;9.13;;
3257;SDS011;1641;51.306;12.384;2024-01-15T00:41:18;16.35;;;9.65;;
3257;SDS011;1641;51.306;12.384;2024-01-15T00:43:44;17.52;;;8.73;;
3257;SDS011;1641;51.306;12.384;2024-01-15T00:46:10;12.98;;;9.23;;
3257;SDS011;1641;51.306;12.384;2024-01-15T00:48:35;14.20;;;9.30;;
3257;SDS011;1641;51.306;12.384;2024-01-15T00:51:01;14.45;;;8.38;;
3257;SDS011;1641;51.306;12.384;2024-01-15T00:53:26;18.10;;;8.60;;
3257;SDS011;1641;51.306;12.384;2024-01-15T00:55:51;15.75;;;9.07;;
3257;SDS011;1641;51.306;12.384;2024-01-15T00:58:17;14.95;;;9.55;;
3257;SDS011;1641;51.306;12.384;2024-01-15T01:00:43;13.50;;;8.43;;
3257;SDS011;1641;51.306;12.384;2024-01-15T01:03:08;17.48;;;9.05;;
3257;SDS011;1641;51.306;12.384;2024-01-15T01:05:34;14.98;;;8.45;;
3257;SDS011;1641;51.306;12.384;2024-01-15T01:07:59;19.08;;;10.45;;
3257;SDS011;1641;51.306;12.384;2024-01-15T01:10:24;14.60;;;8.77;;
3257;SDS011;1641;51.306;12.384;2024-01-15T01:12:51;13.77;;;7.70;;
3257;SDS011;1641;51.306;12.384;2024-01-15T01:15:16;10.75;;;6.75;;
3257;SDS011;1641;51.306;12.384;2024-01-15T01:17:42;14.32;;;9.00;;
3257;SDS011;1641;51.306;12.384;2024-01-15T01:20:07;17.63;;;10.27;;
3257;SDS011;1641;51.306;12.384;2024-01-15T01:22:34;15.27;;;9.50;;
3257;SDS011;1641;51.306;12.384;2024-01-15T01:24:59;16.15;;;8.43;;
3257;SDS011;1641;51.306;12.384;2024-01-15T01:27:24;17.67;;;10.93;;
3257;SDS011;1641;51.306;12.384;2024-01-15T01:29:50;16.10;;;10.35;;
3257;SDS011;1641;51.306;12.384;2024-01-15T01:32:15;15.77;;;9.13;;
3257;SDS011;1641;51.306;12.384;2024-01-15T01:34:41;14.73;;;9.25;;
3257;SDS011;1641;51.306;12.384;2024-01-15T01:37:09;16.52;;;9.50;;
3257;SDS011;1641;51.306;12.384;2024-01-15T01:39:37;17.17;;;9.63;;
3257;SDS011;1641;51.306;12.384;2024-01-15T01:42:03;16.55;;;9.35;;
3257;SDS011;1641;51.306;12.384;2024-01-15T01:44:28;18.15;;;9.23;;
3257;SDS011;1641;51.306;12.384;2024-01-15T01:46:53;15.93;;;10.07;;
3257;SDS011;1641;51.306;12.384;2024-01-15T01:49:21;16.02;;;9.77;;
3257;SDS011;1641;51.306;12.384;2024-01-15T01:51:48;16.83;;;9.75;;
3257;SDS011;1641;51.306;12.384;2024-01-15T01:54:16;19.33;;;10.23;;
3257;SDS011;1641;51.306;12.384;2024-01-15T01:56:46;15.25;;;9.65;;
3257;SDS011;1641;51.306;12.384;2024-01-15T01:59:13;17.58;;;10.15;;
3257;SDS011;1641;51.306;12.384;2024-01-15T02:01:38;18.00;;;10.48;;
3257;SDS011;1641;51.306;12.384;2024-01-15T02:04:04;16.88;;;9.48;;
3257;SDS011;1641;51.306;12.384;2024-01-15T02:06:29;18.02;;;10.48;;
3257;SDS011;1641;51.306;12.384;2024-01-15T02:08:55;17.05;;;10.52;;
3257;SDS011;1641;51.306;12.384;2024-01-15T02:11:23;14.80;;;9.48;;
3257;SDS011;1641;51.306;12.384;2024-01-15T02:13:49;17.13;;;9.25;;
3257;SDS011;1641;51.306;12.384;2024-01-15T02:16:17;14.13;;;8.02;;
3257;SDS011;1641;51.306;12.384;2024-01-15T02:18:43;16.98;;;9.15;;
3257;SDS011;1641;51.306;12.384;2024-01-15T02:21:09;16.50;;;10.07;;
3257;SDS011;1641;51.306;12.384;2024-01-15T02:23:36;14.98;;;8.95;;
3257;SDS011;1641;51.306;12.384;2024-01-15T02:26:01;16.10;;;9.48;;
3257;SDS011;1641;51.306;12.384;2024-01-15T02:28:27;17.90;;;9.90;;
3257;SDS011;1641;51.306;12.384;2024-01-15T02:30:52;15.18;;;8.65;;
3257;SDS011;1641;51.306;12.384;2024-01-15T02:33:17;15.98;;;8.93;;
3257;SDS011;1641;51.306;12.384;2024-01-15T02:35:43;16.05;;;10.15;;
3257;SDS011;1641;51.306;12.384;2024-01-15T02:38:08;15.20;;;9.55;;
3257;SDS011;1641;51.306;12.384;2024-01-15T02:40:34;19.55;;;9.27;;
3257;SDS011;1641;51.306;12.384;2024-01-15T02:43:03;16.90;;;11.30;;
3257;SDS011;1641;51.306;12.384;2024-01-15T02:45:28;13.95;;;7.68;;
3257;SDS011;1641;51.306;12.384;2024-01-15T02:47:54;11.95;;;7.90;;
3257;SDS011;1641;51.306;12.384;2024-01-15T02:50:19;14.65;;;8.63;;
3257;SDS011;1641;51.306;12.384;2024-01-15T02:52:44;17.10;;;9.73;;
3257;SDS011;1641;51.306;12.384;2024-01-15T02:55:10;13.13;;;7.95;;
3257;SDS011;1641;51.306;12.384;2024-01-15T02:57:35;14.50;;;8.73;;
3257;SDS011;1641;51.306;12.384;2024-01-15T03:00:00;13.57;;;8.02;;
3257;SDS011;1641;51.306;12.384;2024-01-15T03:02:25;16.33;;;8.50;;
3257;SDS011;1641;51.306;12.384;2024-01-15T03:04:51;10.00;;;7.10;;
3257;SDS011;1641;51.306;12.384;2024-01-15T03:07:17;12.27;;;7.78;;
3257;SDS011;1641;51.306;12.384;2024-01-15T03:09:42;11.80;;;6.15;;
3257;SDS011;1641;51.306;12.384;2024-01-15T03:12:08;12.35;;;7.68;;
3257;SDS011;1641;51.306;12.384;2024-01-15T03:14:33;14.90;;;8.18;;
3257;SDS011;1641;51.306;12.384;2024-01-15T03:16:58;13.55;;;7.88;;
3257;SDS011;1641;51.306;12.384;2024-01-15T03:19:25;12.98;;;8.02;;
3257;SDS011;1641;51.306;12.384;2024-01-15T03:21:50;15.13;;;9.20;;
3257;SDS011;1641;51.306;12.384;2024-01-15T03:24:16;15.13;;;8.70;;
3257;SDS011;1641;51.306;12.384;2024-01-15T03:26:41;13.82;;;7.03;;
3257;SDS011;1641;51.306;12.384;2024-01-15T03:29:06;15.55;;;8.27;;
3257;SDS011;1641;51.306;12.384;2024-01-15T03:31:32;18.90;;;9.43;;
3257;SDS011;1641;51.306;12.384;2024-01-15T03:33:57;14.68;;;8.23;;
3257;SDS011;1641;51.306;12.384;2024-01-15T03:36:22;15.00;;;8.48;;
3257;SDS011;1641;51.306;12.384;2024-01-15T03:38:48;16.50;;;8.35;;
3257;SDS011;1641;51.306;12.384;2024-01-15T03:41:13;15.82;;;8.57;;
3257;SDS011;1641;51.306;12.384;2024-01-15T03:43:38;14.57;;;7.78;;
3257;SDS011;1641;51.306;12.384;2024-01-15T03:46:04;15.00;;;8.35;;
3257;SDS011;1641;51.306;12.384;2024-01-15T03:48:30;11.98;;;8.02;;
3257;SDS011;1641;51.306;12.384;2024-01-15T03:50:55;12.88;;;7.32;;
3257;SDS011;1641;51.306;12.384;2024-01-15T03:53:20;14.60;;;8.68;;
3257;SDS011;1641;51.306;12.384;2024-01-15T03:55:45;15.48;;;8.27;;
3257;SDS011;1641;51.306;12.384;2024-01-15T03:58:11;15.80;;;8.20;;
3257;SDS011;1641;51.306;12.384;2024-01-15T04:00:36;13.93;;;8.68;;
3257;SDS011;1641;51.306;12.384;2024-01-15T04:03:01;14.63;;;8.52;;
3257;SDS011;1641;51.306;12.384;2024-01-15T04:05:27;13.70;;;8.07;;
3257;SDS011;1641;51.306;12.384;2024-01-15T04:07:52;14.93;;;8.85;;
3257;SDS011;1641;51.306;12.384;2024-01-15T04:10:17;11.98;;;7.45;;
3257;SDS011;1641;51.306;12.384;2024-01-15T04:12:42;13.55;;;7.50;;
3257;SDS011;1641;51.306;12.384;2024-01-15T04:15:08;12.55;;;8.05;;
3257;SDS011;1641;51.306;12.384;2024-01-15T04:17:33;16.25;;;8.43;;
3257;SDS011;1641;51.306;12.384;2024-01-15T04:19:59;13.45;;;7.32;;
3257;SDS011;1641;51.306;12.384;2024-01-15T04:22:24;13.23;;;7.88;;
3257;SDS011;1641;51.306;12.384;2024-01-15T04:24:50;10.90;;;6.28;;
3257;SDS011;1641;51.306;12.384;2024-01-15T04:27:15;13.20;;;6.75;;
3257;SDS011;1641;51.306;12.384;2024-01-15T04:29:40;10.48;;;6.90;;
3257;SDS011;1641;51.306;12.384;2024-01-15T04:32:05;11.43;;;7.07;;
3257;SDS011;1641;51.306;12.384;2024-01-15T04:34:31;8.82;;;6.10;;
3257;SDS011;1641;51.306;12.384;2024-01-15T04:36:56;13.50;;;7.50;;
3257;SDS011;1641;51.306;12.384;2024-01-15T04:39:21;10.23;;;7.45;;
3257;SDS011;1641;51.306;12.384;2024-01-15T04:41:47;13.90;;;7.20;;
3257;SDS011;1641;51.306;12.384;2024-01-15T04:44:12;14.43;;;7.45;;
3257;SDS011;1641;51.306;12.384;2024-01-15T04:46:37;13.45;;;7.88;;
3257;SDS011;1641;51.306;12.384;2024-01-15T04:49:03;11.57;;;7.03;;
3257;SDS011;1641;51.306;12.384;2024-01-15T04:51:28;13.65;;;7.50;;
3257;SDS011;1641;51.306;12.384;2024-01-15T04:53:53;10.90;;;7.90;;
3257;SDS011;1641;51.306;12.384;2024-01-15T04:56:18;14.07;;;7.32;;
3257;SDS011;1641;51.306;12.384;2024-01-15T04:58:44;13.25;;;7.55;;
3257;SDS011;1641;51.306;12.384;2024-01-15T05:01:09;13.85;;;7.78;;
3257;SDS011;1641;51.306;12.384;2024-01-15T05:03:35;10.15;;;6.35;;
3257;SDS011;1641;51.306;12.384;2024-01-15T05:06:00;13.05;;;7.10;;
3257;SDS011;1641;51.306;12.384;2024-01-15T05:08:25;12.57;;;7.97;;
3257;SDS011;1641;51.306;12.384;2024-01-15T05:10:50;12.65;;;6.60;;
3257;SDS011;1641;51.306;12.384;2024-01-15T05:13:16;11.98;;;6.63;;
3257;SDS011;1641;51.306;12.384;2024-01-15T05:15:41;17.58;;;8.80;;
3257;SDS011;1641;51.306;12.384;2024-01-15T05:18:06;13.32;;;7.45;;
3257;SDS011;1641;51.306;12.384;2024-01-15T05:20:31;14.75;;;7.10;;
3257;SDS011;1641;51.306;12.384;2024-01-15T05:22:57;7.53;;;5.00;;
3257;SDS011;1641;51.306;12.384;2024-01-15T05:25:22;12.40;;;5.95;;
3257;SDS011;1641;51.306;12.384;2024-01-15T05:27:47;11.63;;;6.45;;
3257;SDS011;1641;51.306;12.384;2024-01-15T05:30:13;8.25;;;4.40;;
3257;SDS011;1641;51.306;12.384;2024-01-15T05:32:38;14.18;;;6.88;;
3257;SDS011;1641;51.306;12.384;2024-01-15T05:35:03;9.73;;;6.70;;
3257;SDS011;1641;51.306;12.384;2024-01-15T05:37:29;12.48;;;6.95;;
3257;SDS011;1641;51.306;12.384;2024-01-15T05:39:54;21.25;;;11.70;;
3257;SDS011;1641;51.306;12.384;2024-01-15T05:42:19;13.63;;;7.10;;
3257;SDS011;1641;51.306;12.384;2024-01-15T05:44:45;13.02;;;6.80;;
3257;SDS011;1641;51.306;12.384;2024-01-15T05:47:10;12.02;;;6.75;;
3257;SDS011;1641;51.306;12.384;2024-01-15T05:49:35;10.60;;;5.90;;
3257;SDS011;1641;51.306;12.384;2024-01-15T05:52:01;13.45;;;6.43;;
3257;SDS011;1641;51.306;12.384;2024-01-15T05:54:26;14.77;;;7.07;;
3257;SDS011;1641;51.306;12.384;2024-01-15T05:56:51;12.80;;;6.28;;
3257;SDS011;1641;51.306;12.384;2024-01-15T05:59:16;10.98;;;6.40;;
3257;SDS011;1641;51.306;12.384;2024-01-15T06:01:42;11.80;;;6.82;;
3257;SDS011;1641;51.306;12.384;2024-01-15T06:04:07;14.05;;;5.85;;
3257;SDS011;1641;51.306;12.384;2024-01-15T06:06:32;9.52;;;5.60;;
3257;SDS011;1641;51.306;12.384;2024-01-15T06:08:58;11.85;;;5.43;;
3257;SDS011;1641;51.306;12.384;2024-01-15T06:11:30;8.23;;;5.72;;
3257;SDS011;1641;51.306;12.384;2024-01-15T06:13:56;8.75;;;4.78;;
3257;SDS011;1641;51.306;12.384;2024-01-15T06:16:21;9.55;;;5.65;;
3257;SDS011;1641;51.306;12.384;2024-01-15T06:18:46;8.75;;;6.03;;
3257;SDS011;1641;51.306;12.384;2024-01-15T06:21:12;9.77;;;5.47;;
3257;SDS011;1641;51.306;12.384;2024-01-15T06:23:39;8.07;;;5.70;;
3257;SDS011;1641;51.306;12.384;2024-01-15T06:26:05;8.43;;;5.15;;
3257;SDS011;1641;51.306;12.384;2024-01-15T06:28:30;12.32;;;6.03;;
3257;SDS011;1641;51.306;12.384;2024-01-15T06:30:55;12.80;;;6.50;;
3257;SDS011;1641;51.306;12.384;2024-01-15T06:33:21;10.15;;;6.10;;
3257;SDS011;1641;51.306;12.384;2024-01-15T06:35:46;11.80;;;5.78;;
3257;SDS011;1641;51.306;12.384;2024-01-15T06:38:12;13.60;;;6.47;;
3257;SDS011;1641;51.306;12.384;2024-01-15T06:40:40;8.38;;;6.35;;
3257;SDS011;1641;51.306;12.384;2024-01-15T06:43:10;9.27;;;6.15;;
3257;SDS011;1641;51.306;12.384;2024-01-15T06:45:35;15.00;;;5.97;;
3257;SDS011;1641;51.306;12.384;2024-01-15T06:48:01;8.13;;;4.95;;
3257;SDS011;1641;51.306;12.384;2024-01-15T06:50:26;7.63;;;5.65;;
3257;SDS011;1641;51.306;12.384;2024-01-15T06:52:51;7.80;;;5.63;;
3257;SDS011;1641;51.306;12.384;2024-01-15T06:55:16;9.77;;;5.60;;
3257;SDS011;1641;51.306;12.384;2024-01-15T06:57:42;8.30;;;5.03;;
3257;SDS011;1641;51.306;12.384;2024-01-15T07:00:08;9.43;;;5.07;;
3257;SDS011;1641;51.306;12.384;2024-01-15T07:02:37;10.00;;;5.13;;
3257;SDS011;1641;51.306;12.384;2024-01-15T07:05:02;8.93;;;5.78;;
3257;SDS011;1641;51.306;12.384;2024-01-15T07:07:30;9.13;;;5.32;;
3257;SDS011;1641;51.306;12.384;2024-01-15T07:09:55;9.32;;;5.07;;
3257;SDS011;1641;51.306;12.384;2024-01-15T07:12:20;10.45;;;5.78;;
3257;SDS011;1641;51.306;12.384;2024-01-15T07:14:46;7.90;;;4.60;;
3257;SDS011;1641;51.306;12.384;2024-01-15T07:17:11;6.75;;;4.18;;
3257;SDS011;1641;51.306;12.384;2024-01-15T07:19:36;6.18;;;3.72;;
3257;SDS011;1641;51.306;12.384;2024-01-15T07:22:02;10.68;;;4.82;;
3257;SDS011;1641;51.306;12.384;2024-01-15T07:24:27;9.25;;;5.93;;
3257;SDS011;1641;51.306;12.384;2024-01-15T07:26:52;6.15;;;4.18;;
3257;SDS011;1641;51.306;12.384;2024-01-15T07:29:17;8.70;;;5.18;;
3257;SDS011;1641;51.306;12.384;2024-01-15T07:31:52;9.48;;;5.20;;
3257;SDS011;1641;51.306;12.384;2024-01-15T07:34:18;9.90;;;4.85;;
3257;SDS011;1641;51.306;12.384;2024-01-15T07:36:44;8.73;;;4.88;;
3257;SDS011;1641;51.306;12.384;2024-01-15T07:39:10;7.80;;;5.10;;
3257;SDS011;1641;51.306;12.384;2024-01-15T07:41:35;8.20;;;4.85;;
3257;SDS011;1641;51.306;12.384;2024-01-15T07:44:00;6.50;;;4.78;;
3257;SDS011;1641;51.306;12.384;2024-01-15T07:46:26;8.40;;;5.03;;
3257;SDS011;1641;51.306;12.384;2024-01-15T07:48:52;8.15;;;4.45;;
3257;SDS011;1641;51.306;12.384;2024-01-15T07:51:21;8.05;;;4.57;;
3257;SDS011;1641;51.306;12.384;2024-01-15T07:53:47;10.30;;;4.35;;
3257;SDS011;1641;51.306;12.384;2024-01-15T07:56:12;11.30;;;5.43;;
3257;SDS011;1641;51.306;12.384;2024-01-15T07:58:38;11.32;;;5.10;;
3257;SDS011;1641;51.306;12.384;2024-01-15T08:01:03;10.10;;;4.35;;
3257;SDS011;1641;51.306;12.384;2024-01-15T08:03:28;8.65;;;5.38;;
3257;SDS011;1641;51.306;12.384;2024-01-15T08:05:54;7.35;;;4.78;;
3257;SDS011;1641;51.306;12.384;2024-01-15T08:08:20;9.30;;;4.85;;
3257;SDS011;1641;51.306;12.384;2024-01-15T08:10:46;11.45;;;5.90;;
3257;SDS011;1641;51.306;12.384;2024-01-15T08:13:11;15.02;;;5.22;;
3257;SDS011;1641;51.306;12.384;2024-01-15T08:15:37;11.90;;;5.50;;
3257;SDS011;1641;51.306;12.384;2024-01-15T08:18:02;9.40;;;5.00;;
3257;SDS011;1641;51.306;12.384;2024-01-15T08:20:27;11.88;;;5.88;;
3257;SDS011;1641;51.306;12.384;2024-01-15T08:22:53;10.00;;;5.65;;
3257;SDS011;1641;51.306;12.384;2024-01-15T08:25:18;7.30;;;4.53;;
3257;SDS011;1641;51.306;12.384;2024-01-15T08:27:43;7.10;;;4.25;;
3257;SDS011;1641;51.306;12.384;2024-01-15T08:30:09;11.82;;;5.80;;
3257;SDS011;1641;51.306;12.384;2024-01-15T08:32:35;12.02;;;5.30;;
3257;SDS011;1641;51.306;12.384;2024-01-15T08:35:05;9.32;;;5.47;;
3257;SDS011;1641;51.306;12.384;2024-01-15T08:37:31;10.60;;;4.63;;
3257;SDS011;1641;51.306;12.384;2024-01-15T08:39:56;9.38;;;5.03;;
3257;SDS011;1641;51.306;12.384;2024-01-15T08:42:22;6.32;;;4.70;;
3257;SDS011;1641;51.306;12.384;2024-01-15T08:44:49;11.27;;;5.28;;
3257;SDS011;1641;51.306;12.384;2024-01-15T08:47:15;7.40;;;4.97;;
3257;SDS011;1641;51.306;12.384;2024-01-15T08:49:40;9.20;;;5.40;;
3257;SDS011;1641;51.306;12.384;2024-01-15T08:52:09;6.85;;;4.22;;
3257;SDS011;1641;51.306;12.384;2024-01-15T08:54:34;8.80;;;4.82;;
3257;SDS011;1641;51.306;12.384;2024-01-15T08:57:00;7.65;;;4.72;;
3257;SDS011;1641;51.306;12.384;2024-01-15T08:59:25;10.15;;;5.53;;
3257;SDS011;1641;51.306;12.384;2024-01-15T09:01:51;8.68;;;4.97;;
3257;SDS011;1641;51.306;12.384;2024-01-15T09:04:17;7.13;;;4.40;;
3257;SDS011;1641;51.306;12.384;2024-01-15T09:06:46;6.93;;;4.70;;
3257;SDS011;1641;51.306;12.384;2024-01-15T09:09:14;7.60;;;3.95;;
3257;SDS011;1641;51.306;12.384;2024-01-15T09:11:42;12.57;;;6.47;;
3257;SDS011;1641;51.306;12.384;2024-01-15T09:14:08;8.18;;;5.32;;
3257;SDS011;1641;51.306;12.384;2024-01-15T09:16:34;8.35;;;3.80;;
3257;SDS011;1641;51.306;12.384;2024-01-15T09:19:03;12.98;;;5.15;;
3257;SDS011;1641;51.306;12.384;2024-01-15T09:21:28;11.13;;;5.30;;
3257;SDS011;1641;51.306;12.384;2024-01-15T09:23:57;14.70;;;5.03;;
3257;SDS011;1641;51.306;12.384;2024-01-15T09:26:23;10.10;;;5.00;;
3257;SDS011;1641;51.306;12.384;2024-01-15T09:28:52;6.97;;;4.40;;
3257;SDS011;1641;51.306;12.384;2024-01-15T09:31:26;8.45;;;4.57;;
3257;SDS011;1641;51.306;12.384;2024-01-15T09:33:52;8.18;;;4.75;;
3257;SDS011;1641;51.306;12.384;2024-01-15T09:36:27;7.93;;;4.20;;
3257;SDS011;1641;51.306;12.384;2024-01-15T09:41:29;7.20;;;4.40;;
3257;SDS011;1641;51.306;12.384;2024-01-15T09:43:55;12.02;;;4.93;;
3257;SDS011;1641;51.306;12.384;2024-01-15T09:46:20;8.68;;;5.05;;
3257;SDS011;1641;51.306;12.384;2024-01-15T09:48:46;8.75;;;4.35;;
3257;SDS011;1641;51.306;12.384;2024-01-15T09:51:17;10.80;;;6.15;;
3257;SDS011;1641;51.306;12.384;2024-01-15T09:53:43;7.55;;;4.70;;
3257;SDS011;1641;51.306;12.384;2024-01-15T09:56:09;7.53;;;5.10;;
3257;SDS011;1641;51.306;12.384;2024-01-15T09:58:35;10.18;;;5.55;;
3257;SDS011;1641;51.306;12.384;2024-01-15T10:01:01;8.88;;;5.35;;
3257;SDS011;1641;51.306;12.384;2024-01-15T10:03:43;8.70;;;4.05;;
3257;SDS011;1641;51.306;12.384;2024-01-15T10:08:36;9.38;;;5.60;;
3257;SDS011;1641;51.306;12.384;2024-01-15T10:11:02;7.95;;;5.50;;
3257;SDS011;1641;51.306;12.384;2024-01-15T10:13:35;12.50;;;5.03;;
3257;SDS011;1641;51.306;12.384;2024-01-15T10:16:01;8.38;;;4.50;;
3257;SDS011;1641;51.306;12.384;2024-01-15T10:18:31;9.13;;;5.28;;
3257;SDS011;1641;51.306;12.384;2024-01-15T10:21:03;9.60;;;5.18;;
3257;SDS011;1641;51.306;12.384;2024-01-15T10:23:29;11.90;;;4.95;;
3257;SDS011;1641;51.306;12.384;2024-01-15T10:25:57;8.60;;;4.03;;
3257;SDS011;1641;51.306;12.384;2024-01-15T10:28:25;9.27;;;5.13;;
3257;SDS011;1641;51.306;12.384;2024-01-15T10:31:01;9.68;;;5.22;;
3257;SDS011;1641;51.306;12.384;2024-01-15T10:33:27;9.25;;;4.85;;
3257;SDS011;1641;51.306;12.384;2024-01-15T10:35:56;6.47;;;4.70;;
3257;SDS011;1641;51.306;12.384;2024-01-15T10:38:25;11.02;;;4.53;;
3257;SDS011;1641;51.306;12.384;2024-01-15T10:40:57;6.88;;;4.30;;
3257;SDS011;1641;51.306;12.384;2024-01-15T10:43:22;8.63;;;4.65;;
3257;SDS011;1641;51.306;12.384;2024-01-15T10:45:51;8.38;;;4.68;;
3257;SDS011;1641;51.306;12.384;2024-01-15T10:48:35;14.93;;;4.78;;
3257;SDS011;1641;51.306;12.384;2024-01-15T10:51:01;10.98;;;5.03;;
3257;SDS011;1641;51.306;12.384;2024-01-15T10:53:35;10.95;;;4.65;;
3257;SDS011;1641;51.306;12.384;2024-01-15T10:56:04;14.13;;;5.03;;
3257;SDS011;1641;51.306;12.384;2024-01-15T10:58:33;9.70;;;5.05;;
3257;SDS011;1641;51.306;12.384;2024-01-15T11:01:00;8.68;;;4.47;;
3257;SDS011;1641;51.306;12.384;2024-01-15T11:03:26;11.60;;;5.40;;
3257;SDS011;1641;51.306;12.384;2024-01-15T11:05:55;12.15;;;5.50;;
3257;SDS011;1641;51.306;12.384;2024-01-15T11:08:32;9.25;;;5.05;;
3257;SDS011;1641;51.306;12.384;2024-01-15T11:10:57;9.52;;;4.88;;
3257;SDS011;1641;51.306;12.384;2024-01-15T11:16:06;8.10;;;4.90;;
3257;SDS011;1641;51.306;12.384;2024-01-15T11:23:46;7.40;;;4.28;;
3257;SDS011;1641;51.306;12.384;2024-01-15T11:29:08;8.90;;;5.47;;
3257;SDS011;1641;51.306;12.384;2024-01-15T11:34:03;8.80;;;5.85;;
3257;SDS011;1641;51.306;12.384;2024-01-15T11:41:51;5.30;;;3.63;;
3257;SDS011;1641;51.306;12.384;2024-01-15T11:44:29;10.45;;;5.68;;
3257;SDS011;1641;51.306;12.384;2024-01-15T11:47:10;7.60;;;4.47;;
3257;SDS011;1641;51.306;12.384;2024-01-15T11:52:26;6.90;;;4.18;;
3257;SDS011;1641;51.306;12.384;2024-01-15T11:55:14;9.70;;;5.20;;
3257;SDS011;1641;51.306;12.384;2024-01-15T11:57:50;10.02;;;5.00;;
3257;SDS011;1641;51.306;12.384;2024-01-15T12:00:23;9.05;;;4.97;;
3257;SDS011;1641;51.306;12.384;2024-01-15T12:02:49;8.30;;;5.00;;
3257;SDS011;1641;51.306;12.384;2024-01-15T12:05:30;8.27;;;5.05;;
3257;SDS011;1641;51.306;12.384;2024-01-15T12:08:03;5.82;;;3.03;;
3257;SDS011;1641;51.306;12.384;2024-01-15T12:10:42;10.45;;;4.90;;
3257;SDS011;1641;51.306;12.384;2024-01-15T12:13:14;5.75;;;3.33;;
3257;SDS011;1641;51.306;12.384;2024-01-15T12:15:43;8.57;;;4.97;;
3257;SDS011;1641;51.306;12.384;2024-01-15T12:18:19;7.07;;;4.40;;
3257;SDS011;1641;51.306;12.384;2024-01-15T12:20:53;12.10;;;5.05;;
3257;SDS011;1641;51.306;12.384;2024-01-15T12:23:19;10.57;;;4.60;;
3257;SDS011;1641;51.306;12.384;2024-01-15T12:25:47;9.43;;;4.40;;
3257;SDS011;1641;51.306;12.384;2024-01-15T12:28:13;6.45;;;4.63;;
3257;SDS011;1641;51.306;12.384;2024-01-15T12:30:39;5.95;;;4.13;;
3257;SDS011;1641;51.306;12.384;2024-01-15T12:33:10;13.55;;;5.80;;
3257;SDS011;1641;51.306;12.384;2024-01-15T12:35:35;6.68;;;4.25;;
3257;SDS011;1641;51.306;12.384;2024-01-15T12:38:01;7.72;;;4.60;;
3257;SDS011;1641;51.306;12.384;2024-01-15T12:40:32;13.07;;;5.53;;
3257;SDS011;1641;51.306;12.384;2024-01-15T12:43:02;6.78;;;4.55;;
3257;SDS011;1641;51.306;12.384;2024-01-15T12:45:30;10.60;;;5.32;;
3257;SDS011;1641;51.306;12.384;2024-01-15T12:47:56;10.55;;;6.13;;
3257;SDS011;1641;51.306;12.384;2024-01-15T12:50:24;8.93;;;4.47;;
3257;SDS011;1641;51.306;12.384;2024-01-15T12:52:50;10.95;;;4.15;;
3257;SDS011;1641;51.306;12.384;2024-01-15T12:55:16;6.35;;;3.75;;
3257;SDS011;1641;51.306;12.384;2024-01-15T12:57:47;9.10;;;4.10;;
3257;SDS011;1641;51.306;12.384;2024-01-15T13:00:14;10.85;;;4.88;;
3257;SDS011;1641;51.306;12.384;2024-01-15T13:02:43;9.10;;;4.50;;
3257;SDS011;1641;51.306;12.384;2024-01-15T13:05:11;8.68;;;4.78;;
3257;SDS011;1641;51.306;12.384;2024-01-15T13:07:37;8.02;;;4.63;;
3257;SDS011;1641;51.306;12.384;2024-01-15T13:10:03;9.07;;;5.22;;
3257;SDS011;1641;51.306;12.384;2024-01-15T13:12:29;6.72;;;4.43;;
3257;SDS011;1641;51.306;12.384;2024-01-15T13:15:01;8.27;;;5.20;;
3257;SDS011;1641;51.306;12.384;2024-01-15T13:17:28;7.75;;;5.25;;
3257;SDS011;1641;51.306;12.384;2024-01-15T13:19:53;9.50;;;5.43;;
3257;SDS011;1641;51.306;12.384;2024-01-15T13:22:19;9.55;;;6.65;;
3257;SDS011;1641;51.306;12.384;2024-01-15T13:24:53;11.38;;;6.47;;
3257;SDS011;1641;51.306;12.384;2024-01-15T13:27:22;9.55;;;5.60;;
3257;SDS011;1641;51.306;12.384;2024-01-15T13:29:48;7.47;;;4.30;;
3257;SDS011;1641;51.306;12.384;2024-01-15T13:32:17;7.72;;;5.22;;
3257;SDS011;1641;51.306;12.384;2024-01-15T13:34:53;9.80;;;4.80;;
3257;SDS011;1641;51.306;12.384;2024-01-15T13:37:26;8.25;;;4.65;;
3257;SDS011;1641;51.306;12.384;2024-01-15T13:39:52;9.75;;;5.20;;
3257;SDS011;1641;51.306;12.384;2024-01-15T13:42:18;5.60;;;4.35;;
3257;SDS011;1641;51.306;12.384;2024-01-15T13:44:50;9.63;;;5.13;;
3257;SDS011;1641;51.306;12.384;2024-01-15T13:47:19;8.07;;;4.90;;
3257;SDS011;1641;51.306;12.384;2024-01-15T13:49:47;8.27;;;5.47;;
3257;SDS011;1641;51.306;12.384;2024-01-15T13:52:13;6.05;;;4.38;;
3257;SDS011;1641;51.306;12.384;2024-01-15T13:54:44;7.00;;;4.55;;
3257;SDS011;1641;51.306;12.384;2024-01-15T13:59:50;7.38;;;4.50;;
3257;SDS011;1641;51.306;12.384;2024-01-15T14:02:27;11.27;;;5.10;;
3257;SDS011;1641;51.306;12.384;2024-01-15T14:04:55;7.03;;;4.18;;
3257;SDS011;1641;51.306;12.384;2024-01-15T14:07:21;6.40;;;4.22;;
3257;SDS011;1641;51.306;12.384;2024-01-15T14:09:46;9.55;;;5.03;;
3257;SDS011;1641;51.306;12.384;2024-01-15T14:12:12;10.18;;;5.13;;
3257;SDS011;1641;51.306;12.384;2024-01-15T14:17:24;6.72;;;4.45;;
3257;SDS011;1641;51.306;12.384;2024-01-15T14:19:52;6.97;;;5.32;;
3257;SDS011;1641;51.306;12.384;2024-01-15T14:22:20;8.27;;;4.97;;
3257;SDS011;1641;51.306;12.384;2024-01-15T14:24:46;7.53;;;4.20;;
3257;SDS011;1641;51.306;12.384;2024-01-15T14:27:11;12.18;;;6.20;;
3257;SDS011;1641;51.306;12.384;2024-01-15T14:29:39;10.25;;;6.32;;
3257;SDS011;1641;51.306;12.384;2024-01-15T14:32:05;7.03;;;5.15;;
3257;SDS011;1641;51.306;12.384;2024-01-15T14:34:34;7.80;;;5.07;;
3257;SDS011;1641;51.306;12.384;2024-01-15T14:37:02;7.15;;;5.50;;
3257;SDS011;1641;51.306;12.384;2024-01-15T14:39:27;15.40;;;5.82;;
3257;SDS011;1641;51.306;12.384;2024-01-15T14:41:52;7.55;;;4.63;;
3257;SDS011;1641;51.306;12.384;2024-01-15T14:44:18;7.05;;;5.30;;
3257;SDS011;1641;51.306;12.384;2024-01-15T14:46:47;10.38;;;6.68;;
3257;SDS011;1641;51.306;12.384;2024-01-15T14:49:15;9.00;;;5.03;;
3257;SDS011;1641;51.306;12.384;2024-01-15T14:51:41;8.57;;;5.60;;
3257;SDS011;1641;51.306;12.384;2024-01-15T14:54:08;11.32;;;5.40;;
3257;SDS011;1641;51.306;12.384;2024-01-15T14:56:34;8.70;;;5.38;;
3257;SDS011;1641;51.306;12.384;2024-01-15T14:58:59;13.02;;;6.68;;
3257;SDS011;1641;51.306;12.384;2024-01-15T15:01:24;12.23;;;6.55;;
3257;SDS011;1641;51.306;12.384;2024-01-15T15:03:50;8.52;;;5.07;;
3257;SDS011;1641;51.306;12.384;2024-01-15T15:06:18;8.82;;;6.38;;
3257;SDS011;1641;51.306;12.384;2024-01-15T15:08:43;7.82;;;5.32;;
3257;SDS011;1641;51.306;12.384;2024-01-15T15:11:08;18.58;;;5.05;;
3257;SDS011;1641;51.306;12.384;2024-01-15T15:13:34;11.50;;;5.35;;
3257;SDS011;1641;51.306;12.384;2024-01-15T15:15:59;7.00;;;4.88;;
3257;SDS011;1641;51.306;12.384;2024-01-15T15:18:25;9.30;;;5.82;;
3257;SDS011;1641;51.306;12.384;2024-01-15T15:20:51;8.13;;;4.65;;
3257;SDS011;1641;51.306;12.384;2024-01-15T15:23:17;10.75;;;5.95;;
3257;SDS011;1641;51.306;12.384;2024-01-15T15:25:43;13.18;;;5.80;;